createdAt,value
2018-01-22T00:01:15.010Z,89.75
2018-01-22T00:03:43.320Z,90.48
2018-01-22T00:06:11.933Z,91.16
2018-01-22T00:08:40.245Z,91.57
2018-01-22T00:11:08.543Z,91.85
2018-01-22T00:13:37.199Z,92.10
2018-01-22T00:16:05.505Z,92.40
2018-01-22T00:18:33.816Z,92.58
2018-01-22T00:21:02.027Z,92.89
2018-01-22T00:23:30.344Z,93.29
2018-01-22T00:25:58.648Z,93.57
2018-01-22T00:28:27.003Z,93.69
2018-01-22T00:30:55.303Z,93.84
2018-01-22T00:33:23.611Z,93.87
2018-01-22T00:35:51.972Z,94.12
2018-01-22T00:38:21.043Z,94.31
2018-01-22T00:40:49.355Z,94.43
2018-01-22T00:43:18.706Z,94.51
2018-01-22T00:45:47.019Z,94.64
2018-01-22T00:48:15.671Z,94.72
2018-01-22T00:50:44.416Z,94.79
2018-01-22T00:53:12.867Z,94.82
2018-01-22T00:55:41.307Z,94.90
2018-01-22T00:58:09.616Z,95.06
2018-01-22T01:00:37.939Z,95.14
2018-01-22T01:03:06.313Z,95.20
2018-01-22T01:05:34.620Z,95.27
2018-01-22T01:08:02.931Z,95.31
2018-01-22T01:10:33.299Z,95.40
2018-01-22T01:13:01.621Z,95.50
2018-01-22T01:15:29.935Z,95.54
2018-01-22T01:17:58.912Z,95.54
2018-01-22T01:20:27.232Z,95.51
2018-01-22T01:22:55.556Z,95.50
2018-01-22T01:25:23.911Z,95.51
2018-01-22T01:27:52.224Z,95.53
2018-01-22T01:30:22.327Z,95.49
2018-01-22T01:32:51.007Z,95.58
2018-01-22T01:35:19.327Z,95.58
2018-01-22T01:37:47.666Z,95.62
2018-01-22T01:40:17.269Z,95.64
2018-01-22T01:42:45.584Z,95.65
2018-01-22T01:45:14.040Z,95.64
2018-01-22T01:47:43.141Z,95.63
2018-01-22T01:50:11.455Z,95.63
2018-01-22T01:52:39.778Z,95.62
2018-01-22T01:55:08.127Z,95.62
2018-01-22T01:57:36.439Z,95.65
2018-01-22T02:00:05.429Z,95.71
2018-01-22T02:02:33.909Z,95.82
2018-01-22T02:05:02.208Z,95.85
2018-01-22T02:07:30.508Z,95.91
2018-01-22T02:09:58.870Z,95.94
2018-01-22T02:12:27.203Z,95.98
2018-01-22T02:14:55.510Z,96.10
2018-01-22T02:17:23.869Z,96.18
2018-01-22T02:19:52.476Z,96.15
2018-01-22T02:22:20.787Z,96.14
2018-01-22T02:24:49.130Z,96.14
2018-01-22T02:27:17.435Z,96.22
2018-01-22T02:29:45.747Z,96.28
2018-01-22T02:32:15.409Z,96.35
2018-01-22T02:34:44.040Z,96.43
2018-01-22T02:37:12.399Z,96.44
2018-01-22T02:39:41.056Z,96.41
2018-01-22T02:42:09.368Z,96.37
2018-01-22T02:44:37.675Z,96.32
2018-01-22T02:47:06.317Z,96.25
2018-01-22T02:49:34.632Z,96.25
2018-01-22T02:52:02.940Z,96.22
2018-01-22T02:54:32.488Z,96.22
2018-01-22T02:57:01.490Z,96.20
2018-01-22T02:59:30.315Z,96.23
2018-01-22T03:01:59.102Z,96.20
2018-01-22T03:04:27.527Z,96.19
2018-01-22T03:06:56.026Z,96.21
2018-01-22T03:09:24.600Z,96.27
2018-01-22T03:11:53.212Z,96.28
2018-01-22T03:14:21.774Z,96.23
2018-01-22T03:16:50.346Z,96.17
2018-01-22T03:19:18.892Z,96.12
2018-01-22T03:21:47.428Z,96.03
2018-01-22T03:24:16.374Z,96.03
2018-01-22T03:26:44.854Z,96.05
2018-01-22T03:29:13.835Z,96.07
2018-01-22T03:31:42.413Z,96.08
2018-01-22T03:34:10.874Z,96.05
2018-01-22T03:36:39.466Z,96.08
2018-01-22T03:39:08.951Z,96.09
2018-01-22T03:41:38.711Z,96.08
2018-01-22T03:44:07.479Z,95.97
2018-01-22T03:46:36.130Z,95.87
2018-01-22T03:49:05.895Z,95.77
2018-01-22T03:51:34.307Z,95.78
2018-01-22T03:54:03.238Z,96.11
2018-01-22T03:56:31.796Z,96.43
2018-01-22T03:59:00.428Z,96.46
2018-01-22T04:01:28.941Z,96.54
2018-01-22T04:03:57.270Z,96.35
2018-01-22T04:06:25.584Z,96.21
2018-01-22T04:08:54.559Z,96.09
2018-01-22T04:11:22.879Z,96.07
2018-01-22T04:13:51.343Z,96.15
2018-01-22T04:16:19.690Z,96.04
2018-01-22T04:18:47.992Z,95.84
2018-01-22T04:21:17.058Z,96.12
2018-01-22T04:23:47.630Z,96.16
2018-01-22T04:26:16.010Z,96.49
2018-01-22T04:28:44.652Z,96.45
2018-01-22T04:31:13.335Z,96.43
2018-01-22T04:33:41.653Z,96.55
2018-01-22T04:36:09.965Z,96.41
2018-01-22T04:38:38.323Z,96.31
2018-01-22T04:41:07.400Z,96.14
2018-01-22T04:43:35.719Z,96.03
2018-01-22T04:46:05.095Z,95.86
2018-01-22T04:48:33.456Z,95.66
2018-01-22T04:51:01.791Z,95.81
2018-01-22T04:53:30.124Z,95.78
2018-01-22T04:55:58.728Z,95.64
2018-01-22T04:58:27.340Z,95.43
2018-01-22T05:00:55.664Z,95.43
2018-01-22T05:03:23.980Z,95.43
2018-01-22T05:05:52.346Z,95.46
2018-01-22T05:08:20.695Z,95.38
2018-01-22T05:10:49.024Z,95.41
2018-01-22T05:13:17.367Z,95.35
2018-01-22T05:15:45.681Z,95.38
2018-01-22T05:18:13.996Z,95.45
2018-01-22T05:20:43.360Z,95.41
2018-01-22T05:23:11.667Z,95.47
2018-01-22T05:25:39.996Z,95.49
2018-01-22T05:28:08.355Z,95.42
2018-01-22T05:30:36.784Z,95.28
2018-01-22T05:33:05.199Z,95.21
2018-01-22T05:35:33.559Z,95.26
2018-01-22T05:38:02.635Z,95.27
2018-01-22T05:40:30.957Z,95.47
2018-01-22T05:42:59.316Z,95.49
2018-01-22T05:45:27.636Z,95.61
2018-01-22T05:47:55.961Z,95.62
2018-01-22T05:50:24.316Z,95.67
2018-01-22T05:52:52.628Z,95.80
2018-01-22T05:55:20.951Z,95.93
2018-01-22T05:57:49.431Z,96.00
2018-01-22T06:00:17.740Z,96.13
2018-01-22T06:02:47.096Z,96.19
2018-01-22T06:05:16.240Z,96.19
2018-01-22T06:07:44.603Z,96.24
2018-01-22T06:10:12.979Z,96.21
2018-01-22T06:12:41.296Z,96.14
2018-01-22T06:15:09.664Z,96.06
2018-01-22T06:17:39.089Z,95.96
2018-01-22T06:20:07.398Z,95.85
2018-01-22T06:22:35.700Z,95.83
2018-01-22T06:25:04.055Z,95.74
2018-01-22T06:27:32.951Z,95.67
2018-01-22T06:30:01.287Z,95.61
2018-01-22T06:32:29.651Z,95.53
2018-01-22T06:34:59.563Z,95.48
2018-01-22T06:37:27.936Z,95.52
2018-01-22T06:39:56.718Z,95.50
2018-01-22T06:42:25.028Z,95.46
2018-01-22T06:44:54.127Z,95.38
2018-01-22T06:47:22.447Z,95.50
2018-01-22T06:49:51.048Z,95.67
2018-01-22T06:52:19.449Z,95.66
2018-01-22T06:54:47.765Z,95.58
2018-01-22T06:57:16.335Z,95.46
2018-01-22T06:59:44.639Z,95.22
2018-01-22T07:02:13.043Z,95.14
2018-01-22T07:04:41.393Z,95.08
2018-01-22T07:07:09.695Z,95.03
2018-01-22T07:09:38.815Z,95.09
2018-01-22T07:12:07.148Z,95.12
2018-01-22T07:14:35.463Z,95.05
2018-01-22T07:17:03.824Z,94.98
2018-01-22T07:19:32.136Z,94.93
2018-01-22T07:22:00.454Z,94.96
2018-01-22T07:24:28.812Z,95.00
2018-01-22T07:26:57.327Z,94.96
2018-01-22T07:29:25.647Z,94.85
2018-01-22T07:31:54.047Z,94.86
2018-01-22T07:34:22.409Z,94.74
2018-01-22T07:36:50.774Z,94.49
2018-01-22T07:39:19.767Z,94.32
2018-01-22T07:41:48.078Z,94.14
2018-01-22T07:44:16.383Z,93.96
2018-01-22T07:46:44.923Z,93.73
2018-01-22T07:49:14.693Z,93.62
2018-01-22T07:51:43.003Z,93.44
2018-01-22T07:54:11.325Z,92.88
2018-01-22T07:56:39.676Z,93.36
2018-01-22T07:59:08.759Z,93.42
2018-01-22T08:01:38.153Z,94.13
2018-01-22T08:04:06.675Z,93.79
2018-01-22T08:06:34.976Z,93.91
2018-01-22T08:09:03.292Z,94.12
2018-01-22T08:11:32.581Z,94.20
2018-01-22T08:14:01.352Z,94.85
2018-01-22T08:16:29.704Z,94.06
2018-01-22T08:18:58.295Z,94.28
2018-01-22T08:21:26.608Z,94.44
2018-01-22T08:23:54.927Z,94.68
2018-01-22T08:26:23.268Z,94.94
2018-01-22T08:28:51.576Z,94.05
2018-01-22T08:31:19.887Z,93.55
2018-01-22T08:33:48.268Z,93.53
2018-01-22T08:36:16.572Z,93.32
2018-01-22T08:38:44.879Z,94.19
2018-01-22T08:41:14.240Z,94.56
2018-01-22T08:43:42.843Z,94.63
2018-01-22T08:46:11.143Z,94.28
2018-01-22T08:48:40.259Z,94.03
2018-01-22T08:51:08.803Z,93.79
2018-01-22T08:53:37.107Z,93.28
2018-01-22T08:56:05.727Z,91.90
2018-01-22T08:58:34.036Z,92.53
2018-01-22T09:01:02.404Z,92.03
2018-01-22T09:03:31.855Z,91.81
2018-01-22T09:06:00.868Z,92.57
2018-01-22T09:08:29.228Z,93.23
2018-01-22T09:10:57.595Z,93.86
2018-01-22T09:13:26.720Z,94.07
2018-01-22T09:15:55.821Z,93.61
2018-01-22T09:18:24.142Z,93.95
2018-01-22T09:20:52.443Z,94.58
2018-01-22T09:23:20.807Z,94.56
2018-01-22T09:25:49.874Z,94.46
2018-01-22T09:28:18.188Z,94.62
2018-01-22T09:30:47.337Z,95.11
2018-01-22T09:33:15.643Z,95.29
2018-01-22T09:35:43.943Z,95.29
2018-01-22T09:38:12.377Z,95.45
2018-01-22T09:40:41.103Z,95.05
2018-01-22T09:43:09.412Z,94.89
2018-01-22T09:45:38.311Z,94.73
2018-01-22T09:48:06.620Z,94.37
2018-01-22T09:50:34.936Z,94.67
2018-01-22T09:53:04.224Z,92.79
2018-01-22T09:55:33.488Z,93.26
2018-01-22T09:58:02.099Z,93.51
2018-01-22T10:00:30.439Z,92.21
2018-01-22T10:02:58.744Z,91.26
2018-01-22T10:05:27.047Z,91.94
2018-01-22T10:07:56.407Z,91.50
2018-01-22T10:10:24.707Z,90.73
2018-01-22T10:12:53.135Z,89.62
2018-01-22T10:15:22.675Z,90.05
2018-01-22T10:17:50.980Z,91.63
2018-01-22T10:20:19.274Z,92.17
2018-01-22T10:22:47.820Z,92.37
2018-01-22T10:25:16.123Z,92.39
2018-01-22T10:27:45.224Z,91.62
2018-01-22T10:30:15.016Z,87.93
2018-01-22T10:32:43.351Z,87.57
2018-01-22T10:35:11.656Z,87.43
2018-01-22T10:37:40.306Z,90.65
2018-01-22T10:40:08.595Z,91.64
2018-01-22T10:42:36.896Z,91.49
2018-01-22T10:45:05.490Z,91.77
2018-01-22T10:47:33.787Z,91.94
2018-01-22T10:50:02.093Z,91.89
2018-01-22T10:52:30.435Z,92.99
2018-01-22T10:54:59.514Z,94.15
2018-01-22T10:57:27.865Z,93.77
2018-01-22T10:59:56.224Z,93.48
2018-01-22T11:02:25.386Z,92.95
2018-01-22T11:04:54.464Z,91.62
2018-01-22T11:07:22.839Z,91.08
2018-01-22T11:09:51.143Z,91.24
2018-01-22T11:12:19.439Z,91.75
2018-01-22T11:14:47.793Z,91.91
2018-01-22T11:17:16.863Z,91.78
2018-01-22T11:19:45.164Z,91.00
2018-01-22T11:22:14.471Z,88.94
2018-01-22T11:24:43.547Z,87.62
2018-01-22T11:27:11.860Z,88.75
2018-01-22T11:29:40.235Z,89.72
2018-01-22T11:32:08.895Z,91.89
2018-01-22T11:34:37.200Z,91.50
2018-01-22T11:37:05.656Z,91.42
2018-01-22T11:39:33.960Z,93.39
2018-01-22T11:42:02.860Z,93.60
2018-01-22T11:44:31.404Z,92.96
2018-01-22T11:46:59.708Z,91.98
2018-01-22T11:49:28.024Z,91.79
2018-01-22T11:51:56.896Z,91.17
2018-01-22T11:54:25.348Z,90.81
2018-01-22T11:56:53.675Z,90.20
2018-01-22T11:59:22.266Z,89.71
2018-01-22T12:01:50.571Z,89.47
2018-01-22T12:04:19.675Z,89.61
2018-01-22T12:06:48.803Z,89.64
2018-01-22T12:09:17.740Z,89.46
2018-01-22T12:11:46.293Z,89.02
2018-01-22T12:14:14.676Z,88.60
2018-01-22T12:16:43.115Z,88.21
2018-01-22T12:19:12.723Z,88.42
2018-01-22T12:21:41.076Z,88.10
2018-01-22T12:24:09.379Z,87.86
2018-01-22T12:26:38.684Z,88.11
2018-01-22T12:29:07.031Z,88.70
2018-01-22T12:31:37.112Z,88.62
2018-01-22T12:34:05.898Z,88.52
2018-01-22T12:36:34.759Z,88.36
2018-01-22T12:39:03.064Z,88.04
2018-01-22T12:41:31.372Z,87.90
2018-01-22T12:43:59.821Z,87.51
2018-01-22T12:46:28.124Z,87.31
2018-01-22T12:48:56.422Z,87.60
2018-01-22T12:51:24.778Z,87.87
2018-01-22T12:53:53.084Z,87.88
2018-01-22T12:56:21.486Z,88.00
2018-01-22T12:58:49.827Z,89.36
2018-01-22T13:01:18.236Z,90.37
2018-01-22T13:03:47.168Z,90.59
2018-01-22T13:06:15.783Z,90.67
2018-01-22T13:08:44.113Z,90.72
2018-01-22T13:11:12.416Z,90.92
2018-01-22T13:13:40.876Z,90.74
2018-01-22T13:16:09.200Z,90.20
2018-01-22T13:18:37.554Z,90.00
2018-01-22T13:21:06.189Z,90.09
2018-01-22T13:23:34.460Z,90.43
2018-01-22T13:26:02.769Z,90.73
2018-01-22T13:28:31.795Z,90.75
2018-01-22T13:31:00.311Z,90.57
2018-01-22T13:33:28.612Z,90.28
2018-01-22T13:35:56.967Z,90.35
2018-01-22T13:38:26.040Z,90.43
2018-01-22T13:41:13.734Z,90.69
2018-01-22T13:43:42.679Z,90.65
2018-01-22T13:46:11.001Z,90.47
2018-01-22T13:48:39.320Z,90.22
2018-01-22T13:51:07.909Z,90.20
2018-01-22T13:53:36.988Z,90.12
2018-01-22T13:56:05.296Z,90.73
2018-01-22T13:58:34.652Z,90.81
2018-01-22T14:01:02.964Z,91.23
2018-01-22T14:03:31.280Z,91.22
2018-01-22T14:05:59.663Z,91.22
2018-01-22T14:08:27.963Z,91.20
2018-01-22T14:10:56.259Z,91.33
2018-01-22T14:13:24.597Z,91.34
2018-01-22T14:15:53.065Z,91.70
2018-01-22T14:18:21.931Z,91.86
2018-01-22T14:20:50.307Z,91.90
2018-01-22T14:23:20.143Z,91.86
2018-01-22T14:25:48.755Z,91.87
2018-01-22T14:28:17.587Z,91.79
2018-01-22T14:30:46.152Z,91.68
2018-01-22T14:33:14.748Z,91.51
2018-01-22T14:35:43.324Z,92.03
2018-01-22T14:38:12.348Z,93.64
2018-01-22T14:40:41.763Z,94.37
2018-01-22T14:43:10.072Z,94.88
2018-01-22T14:45:38.636Z,94.92
2018-01-22T14:48:07.459Z,94.84
2018-01-22T14:50:35.763Z,94.67
2018-01-22T14:53:04.971Z,94.70
2018-01-22T14:55:33.892Z,94.42
2018-01-22T14:58:02.195Z,94.26
2018-01-22T15:00:30.852Z,93.95
2018-01-22T15:02:59.308Z,93.54
2018-01-22T15:05:27.840Z,93.17
2018-01-22T15:07:56.792Z,93.01
2018-01-22T15:10:25.235Z,93.06
2018-01-22T15:12:53.809Z,93.28
2018-01-22T15:15:22.134Z,94.21
2018-01-22T15:17:50.859Z,94.34
2018-01-22T15:20:19.167Z,94.07
2018-01-22T15:22:47.481Z,93.78
2018-01-22T15:25:16.084Z,93.56
2018-01-22T15:27:44.685Z,93.67
2018-01-22T15:30:13.464Z,93.77
2018-01-22T15:32:41.771Z,93.78
2018-01-22T15:35:10.079Z,93.90
2018-01-22T15:37:39.263Z,94.42
2018-01-22T15:40:08.005Z,94.93
2018-01-22T15:42:36.941Z,95.01
2018-01-22T15:45:05.427Z,94.78
2018-01-22T15:47:34.584Z,94.45
2018-01-22T15:50:02.895Z,94.01
2018-01-22T15:52:31.221Z,93.83
2018-01-22T15:55:00.061Z,93.66
2018-01-22T15:57:28.377Z,93.46
2018-01-22T15:59:56.691Z,93.30
2018-01-22T16:02:25.198Z,93.19
2018-01-22T16:04:53.496Z,93.26
2018-01-22T16:07:23.736Z,93.51
2018-01-22T16:09:52.852Z,95.02
2018-01-22T16:12:21.160Z,95.08
2018-01-22T16:14:49.521Z,94.79
2018-01-22T16:17:17.824Z,95.66
2018-01-22T16:19:46.823Z,95.74
2018-01-22T16:22:16.124Z,95.53
2018-01-22T16:24:44.423Z,96.56
2018-01-22T16:27:12.730Z,96.71
2018-01-22T16:29:41.097Z,96.52
2018-01-22T16:32:10.751Z,96.31
2018-01-22T16:34:39.055Z,96.11
2018-01-22T16:37:07.789Z,96.37
2018-01-22T16:39:37.744Z,96.29
2018-01-22T16:42:07.035Z,96.41
2018-01-22T16:44:37.684Z,96.66
2018-01-22T17:00:33.283Z,97.37
2018-01-22T17:03:02.066Z,97.37
2018-01-22T17:05:30.372Z,97.32
2018-01-22T17:07:58.823Z,97.28
2018-01-22T17:10:27.191Z,97.37
2018-01-22T17:12:55.501Z,97.42
2018-01-22T17:15:26.818Z,97.44
2018-01-22T17:17:55.132Z,97.36
2018-01-22T17:20:23.530Z,97.31
2018-01-22T17:22:55.587Z,97.21
2018-01-22T17:25:24.736Z,97.06
2018-01-22T17:27:53.775Z,96.83
2018-01-22T17:30:22.660Z,96.91
2018-01-22T17:32:51.020Z,96.84
2018-01-22T17:35:20.090Z,96.89
2018-01-22T17:37:48.839Z,96.72
2018-01-22T17:40:17.135Z,96.38
2018-01-22T17:42:45.881Z,96.42
2018-01-22T17:45:14.648Z,96.47
2018-01-22T17:47:42.948Z,96.25
2018-01-22T17:50:11.256Z,96.27
2018-01-22T17:52:42.342Z,96.38
2018-01-22T17:55:11.164Z,96.50
2018-01-22T17:57:39.469Z,96.70
2018-01-22T18:00:07.893Z,96.81
2018-01-22T18:02:37.095Z,96.95
2018-01-22T18:05:06.260Z,97.08
2018-01-22T18:07:34.559Z,97.14
2018-01-22T18:10:03.753Z,96.95
2018-01-22T18:12:32.052Z,96.75
2018-01-22T18:15:01.115Z,96.55
2018-01-22T18:17:29.452Z,96.33
2018-01-22T18:19:57.790Z,96.10
2018-01-22T18:22:26.928Z,95.82
2018-01-22T18:24:55.329Z,95.73
2018-01-22T18:27:24.399Z,95.93
2018-01-22T18:29:53.948Z,95.96
2018-01-22T18:32:22.595Z,95.88
2018-01-22T18:34:50.909Z,95.95
2018-01-22T18:37:19.217Z,95.82
2018-01-22T18:39:47.694Z,96.08
2018-01-22T18:42:16.199Z,95.98
2018-01-22T18:44:44.500Z,96.07
2018-01-22T18:47:12.899Z,96.17
2018-01-22T18:49:42.628Z,96.33
2018-01-22T18:52:11.379Z,96.47
2018-01-22T18:54:39.984Z,96.41
2018-01-22T18:57:08.320Z,96.36
2018-01-22T18:59:36.630Z,96.20
2018-01-22T19:02:05.034Z,96.06
2018-01-22T19:04:33.340Z,95.89
2018-01-22T19:07:02.199Z,95.99
2018-01-22T19:09:30.555Z,95.89
2018-01-22T19:11:58.866Z,95.66
2018-01-22T19:14:27.167Z,95.52
2018-01-22T19:16:55.977Z,95.54
2018-01-22T19:19:25.251Z,95.41
2018-01-22T19:21:54.374Z,95.47
2018-01-22T19:24:22.733Z,95.67
2018-01-22T19:26:51.193Z,95.63
2018-01-22T19:29:20.467Z,95.65
2018-01-22T19:31:52.568Z,95.11
2018-01-22T19:34:21.352Z,94.86
2018-01-22T19:36:50.338Z,95.08
2018-01-22T19:39:19.092Z,95.39
2018-01-22T19:41:47.442Z,95.65
2018-01-22T19:44:15.807Z,95.93
2018-01-22T19:46:44.491Z,95.78
2018-01-22T19:49:13.828Z,95.56
2018-01-22T19:51:42.299Z,93.79
2018-01-22T19:54:11.015Z,91.73
2018-01-22T19:56:39.319Z,91.48
2018-01-22T19:59:07.661Z,90.55
2018-01-22T20:01:36.323Z,89.50
2018-01-22T20:04:05.394Z,90.05
2018-01-22T20:06:33.748Z,88.99
2018-01-22T20:09:03.385Z,88.87
2018-01-22T20:11:31.788Z,89.09
2018-01-22T20:14:00.942Z,89.66
2018-01-22T20:16:31.992Z,89.66
2018-01-22T20:19:00.769Z,89.63
2018-01-22T20:21:29.899Z,89.85
2018-01-22T20:23:58.321Z,89.76
2018-01-22T20:26:27.424Z,89.66
2018-01-22T20:28:56.675Z,89.88
2018-01-22T20:31:28.236Z,90.26
2018-01-22T20:34:00.573Z,90.39
2018-01-22T20:36:29.695Z,90.30
2018-01-22T20:38:58.804Z,90.00
2018-01-22T20:41:28.182Z,90.42
2018-01-22T20:43:56.538Z,90.32
2018-01-22T20:46:25.215Z,90.27
2018-01-22T20:48:54.122Z,89.96
2018-01-22T20:51:22.476Z,89.72
2018-01-22T20:53:51.765Z,89.84
2018-01-22T20:56:20.682Z,90.12
2018-01-22T20:58:49.747Z,90.32
2018-01-22T21:01:18.394Z,91.18
2018-01-22T21:03:48.018Z,91.13
2018-01-22T21:06:16.568Z,91.13
2018-01-22T21:08:47.052Z,90.88
2018-01-22T21:11:15.907Z,90.85
2018-01-22T21:13:44.457Z,90.75
2018-01-22T21:16:12.820Z,90.07
2018-01-22T21:18:41.543Z,89.66
2018-01-22T21:21:10.355Z,89.85
2018-01-22T21:23:39.199Z,90.40
2018-01-22T21:26:07.525Z,90.00
2018-01-22T21:28:36.510Z,89.65
2018-01-22T21:31:05.581Z,89.25
2018-01-22T21:33:35.926Z,88.93
2018-01-22T21:36:06.119Z,89.35
2018-01-22T21:38:36.929Z,89.01
2018-01-22T21:41:05.991Z,89.70
2018-01-22T21:43:34.441Z,89.39
2018-01-22T21:46:03.236Z,89.89
2018-01-22T21:48:31.623Z,90.09
2018-01-22T21:51:00.332Z,90.22
2018-01-22T21:53:28.706Z,90.38
2018-01-22T21:55:57.536Z,90.63
2018-01-22T21:58:25.883Z,90.76
2018-01-22T22:00:54.281Z,90.18
2018-01-22T22:03:23.703Z,88.88
2018-01-22T22:05:52.271Z,88.23
2018-01-22T22:08:20.712Z,87.98
2018-01-22T22:10:49.387Z,87.28
2018-01-22T22:13:17.700Z,87.49
2018-01-22T22:15:46.055Z,87.25
2018-01-22T22:18:14.648Z,87.30
2018-01-22T22:20:43.303Z,87.45
2018-01-22T22:23:11.704Z,86.78
2018-01-22T22:25:40.029Z,87.52
2018-01-22T22:28:08.340Z,87.46
2018-01-22T22:30:37.127Z,87.35
2018-01-22T22:33:07.035Z,86.56
2018-01-22T22:35:35.390Z,86.40
2018-01-22T22:38:03.695Z,86.07
2018-01-22T22:40:32.148Z,86.42
2018-01-22T22:43:00.648Z,86.58
2018-01-22T22:45:30.310Z,86.67
2018-01-22T22:47:58.615Z,85.76
2018-01-22T22:50:27.521Z,84.66
2018-01-22T22:52:55.844Z,85.29
2018-01-22T22:55:24.398Z,84.86
2018-01-22T22:57:53.415Z,85.46
2018-01-22T23:00:21.721Z,85.72
2018-01-22T23:02:51.215Z,86.45
2018-01-22T23:05:19.526Z,86.15
2018-01-22T23:07:49.028Z,85.49
2018-01-22T23:10:17.381Z,86.33
2018-01-22T23:12:45.684Z,85.56
2018-01-22T23:15:14.559Z,84.69
2018-01-22T23:17:43.160Z,84.24
2018-01-22T23:20:12.224Z,84.61
2018-01-22T23:22:41.895Z,84.66
2018-01-22T23:25:10.480Z,85.58
2018-01-22T23:27:38.791Z,85.77
2018-01-22T23:30:07.155Z,85.60
2018-01-22T23:32:36.200Z,85.22
2018-01-22T23:35:05.549Z,85.27
2018-01-22T23:37:33.920Z,85.88
2018-01-22T23:40:02.373Z,85.62
2018-01-22T23:42:31.358Z,87.35
2018-01-22T23:45:00.003Z,86.60
2018-01-22T23:47:28.307Z,85.97
2018-01-22T23:49:57.514Z,85.69
2018-01-22T23:52:27.016Z,83.48
2018-01-22T23:54:55.471Z,82.42
2018-01-22T23:57:23.780Z,82.56
2018-01-22T23:59:53.379Z,82.79
